Fort Valley, Georgia
Current Conditions -  °F | °C
As of 3:35 PM on Thursday 27 Nov 2014 (Local Time) from KPXE Reporting Station
Clear Clear  
Wind Chill: 55°   Ceiling: Unl
Heat Index: 55°   Visibility: 10mi
Dew Point: 28°   Wind: 13mph
Humidity: 36%   Direction: 350°N
Pressure: 30.27"   Gusts: 21mph
Location:  32.55°N, 83.89°W
Report Text: KPXE 272035Z AUTO 35011G18KT 10SM CLR 13/M02 A3027 RMK AO2 T01271022
Loading
Personal Weather Stations






























Interactive Weather Map New forecast layout! Learn more

10-Day Weather Forecast

Advertisements
Track Severe Weather on mobile